Flight Track Log - Related Links

Times and Time Zones

All times are in EDT time to prevent confusion due to time zone crossing. See the BAW2649 flight status page for this flight to view local times or setup timezone preferences in your user account.

Time Position Orientation Groundspeed Altitude Reporting Facility
EDT Latitude Longitude Course Direction KTS MPH feet Rate Location/Type
Sun 05:53:00 AM 41.4888 19.6115 312° West  Level Estimated
Sun 05:54:00 AM 41.5628 19.5022 312° West  Level Estimated
Sun 05:55:00 AM 41.6367 19.3926 312° West  Level Estimated
Sun 05:56:00 AM 41.7105 19.2828 312° West  Level Estimated
Sun 05:57:00 AM 41.7842 19.1727 312° West  Level Estimated
Sun 05:58:00 AM 41.8577 19.0623 312° West  Level Estimated
Sun 05:59:00 AM 41.9312 18.9518 312° West  Level Estimated
Sun 06:00:00 AM 42.0046 18.8409 312° West  Level Estimated
Sun 06:01:00 AM 42.0778 18.7298 312° West  Level Estimated
Sun 06:02:00 AM 42.1510 18.6185 312° West  Level Estimated
Sun 06:03:00 AM 42.2240 18.5068 311° West  Level Estimated
Sun 06:04:00 AM 42.2970 18.3950 311° West  Level Estimated
Sun 06:05:00 AM 42.3698 18.2829 311° West  Level Estimated
Sun 06:06:00 AM 42.4425 18.1705 311° West  Level Estimated
Sun 06:07:00 AM 42.5151 18.0578 311° West  Level Estimated
Sun 06:08:00 AM 42.5876 17.9449 311° West  Level Estimated
Sun 06:09:00 AM 42.6600 17.8317 311° West  Level Estimated
Sun 06:10:00 AM 42.7286 17.7240 311° West  Level Estimated
Sun 06:11:00 AM 42.7972 17.6160 311° West  Level Estimated
Sun 06:12:00 AM 42.8656 17.5077 311° West  Level Estimated
Sun 06:13:00 AM 42.9340 17.3993 311° West  Level Estimated
Sun 06:14:00 AM 43.0022 17.2905 311° West  Level Estimated
Sun 06:15:00 AM 43.0704 17.1816 311° West  Level Estimated
Sun 06:16:00 AM 43.1384 17.0724 311° West  Level Estimated
Sun 06:17:00 AM 43.2064 16.9629 310° West  Level Estimated
Sun 06:18:00 AM 43.2742 16.8532 310° West  Level Estimated
Sun 06:19:00 AM 43.3419 16.7433 310° West  Level Estimated
Sun 06:20:00 AM 43.4096 16.6331 310° West  Level Estimated
Sun 06:21:00 AM 43.4771 16.5227 310° West  Level Estimated
Sun 06:22:00 AM 43.5445 16.4120 310° West  Level Estimated
Sun 06:23:00 AM 43.6118 16.3011 310° West  Level Estimated
Sun 06:24:00 AM 43.6790 16.1899 310° West  Level Estimated
Sun 06:25:00 AM 43.7461 16.0785 310° West  Level Estimated
Sun 06:26:00 AM 43.8131 15.9669 310° West  Level Estimated
Sun 06:27:00 AM 43.8799 15.8549 310° West  Level Estimated
Sun 06:28:00 AM 43.9467 15.7428 310° West  Level Estimated
Sun 06:29:00 AM 44.0134 15.6303 310° West  Level Estimated
Sun 06:30:00 AM 44.0799 15.5177 309° West  Level Estimated
Sun 06:31:00 AM 44.1463 15.4047 309° West  Level Estimated
Sun 06:32:00 AM 44.2127 15.2916 309° West  Level Estimated
Sun 06:33:00 AM 44.2789 15.1781 309° West  Level Estimated
Sun 06:34:00 AM 44.3450 15.0644 309° West  Level Estimated
Sun 06:35:00 AM 44.4109 14.9505 309° West  Level Estimated
Sun 06:36:00 AM 44.4768 14.8363 309° West  Level Estimated
Sun 06:37:00 AM 44.5426 14.7218 309° West  Level Estimated
Sun 06:38:00 AM 44.6082 14.6071 309° West  Level Estimated
Sun 06:39:00 AM 44.6737 14.4921 309° West  Level Estimated
Sun 06:40:00 AM 44.7391 14.3769 309° West  Level Estimated
Sun 06:41:00 AM 44.8044 14.2613 309° West  Level Estimated
Sun 06:42:00 AM 44.8696 14.1456 308° West  Level Estimated
Sun 06:43:00 AM 44.9347 14.0296 308° West  Level Estimated
Sun 06:44:00 AM 44.9996 13.9133 308° West  Level Estimated
Sun 06:45:00 AM 45.0644 13.7967 308° West  Level Estimated
Sun 06:46:25 AM 45.5779 12.4788 299° West 433 498 36,000  Level FlightAware ADS-B (EDDM / MUC)
Sun 06:47:15 AM 45.6260 12.3544 299° West 434 499 36,000  Level FlightAware ADS-B (EDDM / MUC)
Sun 06:47:47 AM 45.6550 12.2783 299° West 435 501 36,000  Level FlightAware ADS-B (EDDM / MUC)
Sun 06:48:27 AM 45.6935 12.1780 299° West 436 502 36,000  Level FlightAware ADS-B (EDDM / MUC)
Sun 06:48:57 AM 45.7206 12.1076 299° West 437 503 36,000  Level FlightAware ADS-B (EDDM / MUC)
Sun 06:49:38 AM 45.7582 12.0081 298° West 439 505 36,000  Level FlightAware ADS-B (EDDM / MUC)
Sun 06:50:18 AM 45.8003 11.8974 298° West 440 506 36,000  Level FlightAware ADS-B (EDDM / MUC)
Sun 06:50:58 AM 45.8405 11.7906 298° West 441 507 36,000  Level FlightAware ADS-B (EDDM / MUC)
Sun 06:51:40 AM 45.8776 11.6930 298° West 442 509 36,000  Level FlightAware ADS-B (EDDM / MUC)
Sun 06:52:10 AM 45.9115 11.6025 298° West 443 510 36,000  Level FlightAware ADS-B (EDDM / MUC)
Sun 06:52:40 AM 45.9401 11.5252 298° West 442 509 36,000  Level FlightAware ADS-B (EDDM / MUC)
Sun 06:53:21 AM 45.9745 11.4335 298° West 442 509 36,000  Level FlightAware ADS-B (EDDM / MUC)
Sun 06:53:52 AM 46.0054 11.3506 298° West 441 507 36,000  Level FlightAware ADS-B (EDDM / MUC)
Sun 06:54:25 AM 46.0332 11.2753 298° West 441 507 36,000  Level FlightAware ADS-B (ETSE)
Sun 06:54:55 AM 46.0629 11.1953 298° West 440 506 36,000  Level FlightAware ADS-B (EDDM / MUC)
Sun 06:55:35 AM 46.1039 11.0835 298° West 440 506 36,000  Level FlightAware ADS-B (EDDM / MUC)
Sun 06:56:05 AM 46.1359 10.9965 298° West 440 506 36,000  Level FlightAware ADS-B (EDDM / MUC)
Sun 06:56:35 AM 46.1622 10.9242 298° West 441 507 36,000  Level FlightAware ADS-B (EDDM / MUC)
Sun 06:57:11 AM 46.1984 10.8249 298° West 443 510 36,000  Level FlightAware ADS-B (EDDM / MUC)
Sun 06:57:53 AM 46.2382 10.7152 298° West 445 512 36,000  Level FlightAware ADS-B (EDDM / MUC)
Sun 06:58:34 AM 46.2768 10.6086 298° West 444 511 36,000  Level FlightAware ADS-B (ETSE)
Sun 06:59:15 AM 46.3093 10.5183 297° West 445 512 36,000  Level FlightAware ADS-B (EDDM / MUC)
Sun 06:59:46 AM 46.3456 10.4176 297° West 446 513 36,000  Level FlightAware ADS-B (EDDM / MUC)
Sun 07:00:17 AM 46.3747 10.3357 297° West 446 513 36,000  Level FlightAware ADS-B (EDDM / MUC)
Sun 07:00:47 AM 46.3976 10.2719 297° West 446 513 36,000  Level FlightAware ADS-B (ETSE)
Sun 07:01:17 AM 46.4303 10.1790 297° West 445 512 36,000  Level FlightAware ADS-B (EDDM / MUC)
Sun 07:01:50 AM 46.4606 10.0918 297° West 447 514 36,000  Level FlightAware ADS-B (ETSE)
Sun 07:02:31 AM 46.4943 9.9956 297° West 447 514 36,000  Level FlightAware ADS-B (EDDM / MUC)
Sun 07:03:13 AM 46.5365 9.8732 297° West 446 513 36,000  Level FlightAware ADS-B (EDDM / MUC)
Sun 07:03:50 AM 46.5703 9.7752 297° West 446 513 36,000  Level FlightAware ADS-B (EDDM / MUC)
Sun 07:04:35 AM 46.5703 9.7752 297° West 447 514 36,000  Level FlightAware ADS-B (ETSE)
Sun 07:05:34 AM 46.5365 9.8732 296° West 450 518 36,000  Level FlightAware ADS-B (ETSE)
Sun 07:08:29 AM 46.8020 9.0912 296° West 451 519 36,000  Level FlightAware ADS-B (ETSE)
Sun 07:10:00 AM 46.8644 8.9040 296° West 450 518 36,000  Level FlightAware ADS-B (CYCD)
Sun 07:10:52 AM 46.9523 8.6251 291° West 446 513 36,000  Level FlightAware ADS-B (CYCD)
Sun 07:13:49 AM 46.9523 8.6251 291° West 448 516 36,000  Level FlightAware ADS-B (CYCD)
Sun 07:16:40 AM 47.2371 7.6441 294° West 454 522 36,000  Level FlightAware ADS-B
Sun 07:19:38 AM 47.3866 7.1307 293° West 461 531 36,000  Level FlightAware ADS-B (CYCD)
Sun 07:20:39 AM 47.4278 6.9883 293° West 462 532 36,000 48 Level FlightAware ADS-B (CYCD)
Sun 07:21:44 AM 47.4893 6.7761 293° West 458 527 36,100  Climbing FlightAware ADS-B (CYCD)
Sun 07:22:30 AM 47.5247 6.6541 293° West 456 525 36,000 -60 Descending FlightAware ADS-B (CYCD)
Sun 07:23:24 AM 47.5493 6.5691 293° West 455 524 36,000  Level FlightAware ADS-B (CYCD)
Sun 07:24:06 AM 47.6071 6.3689 293° West 454 522 36,000  Level FlightAware ADS-B (CYCD)
Sun 07:24:54 AM 47.6439 6.2408 293° West 457 526 36,000  Level FlightAware ADS-B (CYCD)
Sun 07:25:24 AM 47.6678 6.1571 293° West 457 526 36,000  Level FlightAware ADS-B (CYCD)
Sun 07:25:56 AM 47.6968 6.0541 292° West 454 522 36,000  Level FlightAware ADS-B (CYCD)
Sun 07:44:01 AM 49.0979 3.3357 313° West 469 540 36,000  Level FlightAware ADS-B
Sun 07:44:54 AM 49.1775 3.2037 313° West 464 534 36,000  Level FlightAware ADS-B
Sun 07:45:01 AM 49.2018 3.1600 313° West 456 525 36,000  Level FlightAware UK
Sun 07:45:37 AM 49.2540 3.0742 313° West 582 670 36,000  Level FlightAware UK
Sun 07:46:07 AM 49.2964 3.0012 312° West 463 533 36,000  Level FlightAware UK
Sun 07:46:23 AM 49.3157 2.9731 312° West 456 525 36,000  Level FlightAware ADS-B (EGLF / FAB)
Sun 07:47:17 AM 49.3903 2.8475 312° West 456 525 36,000  Level FlightAware ADS-B
Sun 07:47:19 AM 49.3979 2.8317 312° West 481 554 36,000  Level FlightAware UK
Sun 07:48:37 AM 49.5095 2.6474 312° West 469 540 36,000  Level FlightAware UK
Sun 07:49:12 AM 49.5570 2.5652 312° West 456 525 36,000 -91 Level FlightAware ADS-B (LRBS / BBU)
Sun 07:49:43 AM 49.6021 2.4885 312° West 456 525 35,900 -194 Descending FlightAware UK
Sun 07:49:43 AM 49.5709 2.5413 312° West 456 525 35,900 -1,000 Level FlightAware ADS-B (LRBS / BBU)
Sun 07:50:13 AM 49.6444 2.4160 312° West 456 525 35,400 -1,235 Descending FlightAware UK
Sun 07:50:17 AM 49.5811 2.5240 312° West 457 526 35,200 -833 Descending FlightAware ADS-B
Sun 07:50:49 AM 49.6953 2.3295 312° West 456 525 34,900 -279 Descending FlightAware UK
Sun 07:51:00 AM 49.7048 2.3123 312° West 457 526 35,000 87 Climbing FlightAware ADS-B
Sun 07:51:58 AM 49.7625 2.2128 312° West 456 525 35,000  Level FlightAware ADS-B (EGLF / FAB)
Sun 07:52:34 AM 49.8336 2.0741 303° West 442 509 35,000  Level FlightAware ADS-B (EHGR / GLZ)
Sun 07:53:05 AM 49.8566 2.0223 305° West 445 512 35,000  Level FlightAware ADS-B (EGLF / FAB)
Sun 07:53:36 AM 49.9095 1.9048 305° West 444 511 35,000  Level FlightAware UK
Sun 07:53:52 AM 49.9258 1.8747 313° West 454 522 35,000  Level FlightAware ADS-B
Sun 07:54:33 AM 49.9561 1.8262 315° West 455 524 35,000 -929 Level FlightAware ADS-B
Sun 07:55:16 AM 49.8991 1.9271 315° West 450 518 33,700 -1,773 Descending FlightAware ADS-B (EGLF / FAB)
Sun 07:56:01 AM 49.9258 1.8747 314° West 442 509 32,400 -1,875 Descending FlightAware ADS-B
Sun 07:56:36 AM 50.1689 1.4907 314° West 438 504 31,200 -2,789 Descending FlightAware UK
Sun 07:57:12 AM 50.2191 1.4079 313° West 454 522 29,100 -4,071 Descending FlightAware UK
Sun 07:57:32 AM 50.1409 1.5348 310° West 470 541 27,400 -3,077 Descending FlightAware ADS-B (EGLF / FAB)
Sun 07:58:30 AM 50.3275 1.2079 310° West 460 529 25,100 -2,617 Descending FlightAware UK
Sun 07:59:06 AM 50.3770 1.1197 311° West 448 516 23,300 -3,733 Descending FlightAware UK
Sun 07:59:15 AM 50.3206 1.2206 311° West 449 517 22,300 -3,083 Descending FlightAware ADS-B (EGLF / FAB)
Sun 08:00:18 AM 50.4737 0.9533 311° West 426 490 19,600 -2,500 Descending FlightAware UK
Sun 08:00:39 AM 50.4543 0.9857 312° West 426 490 18,800 -3,000 Descending FlightAware ADS-B (EGLF / FAB)
Sun 08:01:10 AM 50.5449 0.8491 317° Northwest 402 463 17,000 -3,789 Descending FlightAware ADS-B
Sun 08:01:17 AM 50.5476 0.8452 316° Northwest 402 463 16,400 -723 Descending FlightAware ADS-B (EGLF / FAB)
Sun 08:02:33 AM 50.5351 0.8638 316° Northwest 338 389 16,000 -305 Descending FlightAware ADS-B
Sun 08:03:15 AM 50.6707 0.6584 318° Northwest 310 357 15,800 -560 Descending FlightAware ADS-B
Sun 08:03:48 AM 50.7254 0.5803 318° Northwest 297 342 15,300 -857 Descending FlightAware ADS-B (EGLF / FAB)
Sun 08:03:57 AM 50.7369 0.5638 317° Northwest 288 331 15,200 -1,000 Descending FlightAware ADS-B (EGKK / LGW)
Sun 08:04:06 AM 50.7467 0.5497 316° Northwest 287 330 15,000 -1,250 Descending FlightAware ADS-B
Sun 08:04:21 AM 50.7619 0.5279 317° Northwest 285 328 14,700 -1,043 Descending FlightAware ADS-B
Sun 08:04:52 AM 50.7928 0.4832 318° Northwest 289 333 14,200 -689 Descending FlightAware ADS-B
Sun 08:05:22 AM 50.8212 0.4423 317° Northwest 288 331 14,000 -179 Descending FlightAware ADS-B
Sun 08:05:59 AM 50.8571 0.3904 318° Northwest 288 331 14,000  Level FlightAware ADS-B (EGLF / FAB)
Sun 08:06:28 AM 50.8777 0.3606 318° Northwest 285 328 14,000  Level FlightAware ADS-B
Sun 08:06:40 AM 50.8981 0.3311 317° Northwest 284 327 14,000  Level FlightAware ADS-B (EGHI / SOU)
Sun 08:06:54 AM 50.9104 0.3133 316° Northwest 271 312 14,000  Level FlightAware ADS-B (EGHI / SOU)
Sun 08:07:02 AM 50.9182 0.3020 317° Northwest 270 311 14,000  Level FlightAware ADS-B
Sun 08:07:19 AM 50.9333 0.2802 316° Northwest 269 310 14,000  Level FlightAware ADS-B (EGKK / LGW)
Sun 08:07:38 AM 50.9528 0.2531 326° Northwest 274 315 14,000  Level FlightAware ADS-B (EGKK / LGW)
Sun 08:07:49 AM 50.9638 0.2438 340° North 288 331 14,000  Level FlightAware ADS-B (EGLF / FAB)
Sun 08:07:58 AM 50.9741 0.2393 356° North 299 344 14,000  Level FlightAware ADS-B
Sun 08:08:04 AM 50.9859 0.2388 North 304 350 14,000  Level FlightAware ADS-B
Sun 08:08:10 AM 50.9887 0.2393 17° North 308 354 14,000  Level FlightAware ADS-B
Sun 08:08:16 AM 51.0009 0.2453 26° Northeast 303 349 14,000  Level FlightAware ADS-B
Sun 08:08:21 AM 51.0076 0.2514 37° Northeast 305 351 14,000  Level FlightAware ADS-B (EGHH / BOH)
Sun 08:08:28 AM 51.0162 0.2632 48° Northeast 312 359 14,000  Level FlightAware ADS-B (EGHI / SOU)
Sun 08:08:33 AM 51.0202 0.2713 60° Northeast 310 357 14,000  Level FlightAware ADS-B
Sun 08:08:37 AM 51.0222 0.2765 60° Northeast 310 357 14,000  Level FlightAware ADS-B (EGLF / FAB)
Sun 08:08:40 AM 51.0248 0.2848 71° East 306 352 14,000  Level FlightAware ADS-B
Sun 08:08:43 AM 51.0258 0.2890 83° East 300 345 14,000  Level FlightAware ADS-B (EGHI / SOU)
Sun 08:08:52 AM 51.0282 0.3104 90° East 296 341 14,000  Level FlightAware ADS-B
Sun 08:09:02 AM 51.0266 0.3320 83° East 300 345 14,000  Level FlightAware ADS-B (KCAK)
Sun 08:09:07 AM 51.0241 0.3426 114° Southeast 278 320 14,000  Level FlightAware ADS-B (EGLL / LHR)
Sun 08:09:11 AM 51.0218 0.3498 83° East 300 345 14,000  Level FlightAware ADS-B (KCAK)
Sun 08:09:18 AM 51.0184 0.3577 127° Southeast 268 308 14,000  Level FlightAware ADS-B (EGLF / FAB)
Sun 08:09:22 AM 51.0148 0.3651 129° Southeast 266 306 14,000  Level FlightAware ADS-B
Sun 08:09:32 AM 51.0087 0.3772 128° Southeast 264 304 14,000  Level FlightAware ADS-B
Sun 08:09:45 AM 50.9970 0.4013 127° Southeast 263 303 14,000 -500 Level FlightAware ADS-B
Sun 08:09:56 AM 50.9887 0.4187 128° Southeast 260 299 13,800 -1,154 Descending FlightAware ADS-B
Sun 08:10:11 AM 50.9780 0.4405 128° Southeast 257 296 13,500 -1,355 Descending FlightAware ADS-B
Sun 08:10:27 AM 50.9647 0.4628 144° Southeast 248 285 13,100 -1,111 Descending FlightAware ADS-B
Sun 08:10:38 AM 50.9620 0.4657 156° South 240 276 13,000 -300 Descending FlightAware ADS-B
Sun 08:10:47 AM 50.9444 0.4766 171° South 229 264 13,000  Level FlightAware ADS-B (EGHI / SOU)
Sun 08:10:54 AM 50.9385 0.4778 176° South 237 273 13,000  Level FlightAware ADS-B (EGLL / LHR)
Sun 08:11:01 AM 50.9291 0.4772 188° South 225 259 13,000  Level FlightAware ADS-B
Sun 08:11:09 AM 50.9212 0.4744 199° South 231 266 13,000  Level FlightAware ADS-B (EGLL / LHR)
Sun 08:11:24 AM 50.9070 0.4625 217° Southwest 231 266 13,000 -400 Level FlightAware ADS-B (EGLL / LHR)
Sun 08:11:39 AM 50.8968 0.4458 239° Southwest 233 268 12,800 -900 Descending FlightAware ADS-B (EGLL / LHR)
Sun 08:11:44 AM 50.8933 0.4365 244° Southwest 234 269 12,700 -1,200 Descending FlightAware ADS-B
Sun 08:11:49 AM 50.8914 0.4291 252° West 236 272 12,600 -857 Descending FlightAware ADS-B
Sun 08:11:58 AM 50.8890 0.4141 264° West 242 278 12,500 -500 Descending FlightAware ADS-B
Sun 08:12:01 AM 50.8887 0.4100 258° West 235 270 12,500 -600 Level FlightAware ADS-B (LERS / REU)
Sun 08:12:08 AM 50.8887 0.3949 277° West 250 288 12,400 -1,000 Descending FlightAware ADS-B (EGHI / SOU)
Sun 08:12:13 AM 50.8897 0.3860 283° West 254 292 12,300 -800 Descending FlightAware ADS-B
Sun 08:12:23 AM 50.8936 0.3690 297° West 262 302 12,200 -706 Descending FlightAware ADS-B
Sun 08:12:30 AM 50.8950 0.3649 308° West 265 305 12,100 -632 Descending FlightAware ADS-B
Sun 08:12:42 AM 50.9067 0.3398 308° West 263 303 12,000 -140 Descending FlightAware ADS-B (EGKK / LGW)
Sun 08:13:13 AM 50.9296 0.2939 308° West 258 297 12,000  Level FlightAware ADS-B (EGLF / FAB)
Sun 08:13:22 AM 50.9363 0.2804 308° West 260 299 12,000  Level FlightAware ADS-B (LERS / REU)
Sun 08:13:39 AM 50.9498 0.2549 318° Northwest 261 300 12,000  Level FlightAware ADS-B (EGLL / LHR)
Sun 08:13:47 AM 50.9572 0.2464 329° Northwest 265 305 12,000  Level FlightAware ADS-B
Sun 08:13:54 AM 50.9653 0.2404 340° North 270 311 12,000  Level FlightAware ADS-B (EGLL / LHR)
Sun 08:14:01 AM 50.9739 0.2375 354° North 274 315 12,000  Level FlightAware ADS-B (EGKK / LGW)
Sun 08:14:07 AM 50.9783 0.2372 North 278 320 12,000  Level FlightAware ADS-B
Sun 08:14:19 AM 50.9964 0.2436 28° Northeast 277 319 12,000  Level FlightAware ADS-B (EGHH / BOH)
Sun 08:14:23 AM 51.0010 0.2477 36° Northeast 279 321 12,000  Level FlightAware ADS-B (KCAK)
Sun 08:14:28 AM 51.0061 0.2543 44° Northeast 287 330 12,000 -545 Level FlightAware ADS-B (EGHI / SOU)
Sun 08:14:34 AM 51.0114 0.2637 56° Northeast 283 326 11,900 -857 Descending FlightAware ADS-B (KCAK)
Sun 08:14:42 AM 51.0166 0.2786 50° Northeast 283 326 11,800 -857 Descending FlightAware ADS-B
Sun 08:14:48 AM 51.0180 0.2864 81° East 283 326 11,700 -923 Descending FlightAware ADS-B
Sun 08:14:55 AM 51.0190 0.2962 94° East 281 323 11,600 -857 Descending FlightAware ADS-B (EGLL / LHR)
Sun 08:15:02 AM 51.0186 0.3126 107° East 277 319 11,500 -923 Descending FlightAware ADS-B
Sun 08:15:08 AM 51.0167 0.3227 118° Southeast 273 314 11,400 -857 Descending FlightAware ADS-B
Sun 08:15:16 AM 51.0091 0.3440 83° East 283 326 11,300 -750 Descending FlightAware ADS-B (LERS / REU)
Sun 08:15:24 AM 51.0054 0.3508 132° Southeast 267 307 11,200 -923 Descending FlightAware ADS-B (EGLL / LHR)
Sun 08:15:29 AM 51.0091 0.3440 144° Southeast 262 302 11,100 -800 Descending FlightAware ADS-B
Sun 08:15:39 AM 50.9891 0.3695 165° South 252 290 11,000  Descending FlightAware ADS-B (EGLL / LHR)
Sun 08:15:42 AM 50.9933 0.3667 152° Southeast 258 297 11,100  Climbing FlightAware ADS-B (EGKK / LGW)
Sun 08:15:48 AM 50.9767 0.3721 183° South 245 282 11,000 -462 Descending FlightAware ADS-B
Sun 08:15:55 AM 50.9704 0.3705 198° South 243 280 11,000  Level FlightAware ADS-B (EGLL / LHR)
Sun 08:15:59 AM 50.9658 0.3677 209° Southwest 243 280 11,000  Level FlightAware ADS-B
Sun 08:16:06 AM 50.9601 0.3623 221° Southwest 241 277 11,000  Level FlightAware ADS-B
Sun 08:16:15 AM 50.9523 0.3481 235° Southwest 236 272 11,000  Level FlightAware ADS-B
Sun 08:16:18 AM 50.9527 0.3490 250° West 242 278 11,000  Level FlightAware ADS-B
Sun 08:16:29 AM 50.9481 0.3277 267° West 244 281 11,000  Level FlightAware ADS-B
Sun 08:16:33 AM 50.9479 0.3176 270° West 245 282 11,000  Level FlightAware ADS-B
Sun 08:16:43 AM 50.9481 0.3007 272° West 249 287 11,000  Level FlightAware ADS-B
Sun 08:16:54 AM 50.9486 0.2814 272° West 247 284 11,000 -333 Level FlightAware ADS-B
Sun 08:17:01 AM 50.9487 0.2700 272° West 244 281 10,900 -1,263 Descending FlightAware ADS-B (EGLF / FAB)
Sun 08:17:13 AM 50.9490 0.2458 271° West 242 278 10,600 -1,909 Descending FlightAware ADS-B
Sun 08:17:23 AM 50.9494 0.2286 271° West 243 280 10,200 -1,556 Descending FlightAware ADS-B
Sun 08:17:40 AM 50.9500 0.2012 272° West 240 276 9,900 -1,200 Descending FlightAware ADS-B (EGLL / LHR)
Sun 08:17:53 AM 50.9505 0.1770 272° West 236 272 9,600 -1,440 Descending FlightAware ADS-B (EGLF / FAB)
Sun 08:18:05 AM 50.9507 0.1568 272° West 233 268 9,300 -1,742 Descending FlightAware ADS-B (EGKK / LGW)
Sun 08:18:24 AM 50.9513 0.1243 270° West 233 268 8,700 -1,886 Descending FlightAware ADS-B (EGKK / LGW)
Sun 08:18:40 AM 50.9517 0.0970 272° West 237 273 8,200 -1,636 Descending FlightAware ADS-B (EGLL / LHR)
Sun 08:18:46 AM 50.9522 0.0848 270° West 237 273 8,100 -522 Descending FlightAware ADS-B (LERS / REU)
Sun 08:19:03 AM 50.9526 0.0560 272° West 233 268 8,000 -162 Descending FlightAware ADS-B (EGLF / FAB)
Sun 08:19:23 AM 50.9529 0.0234 271° West 236 272 8,000  Level FlightAware ADS-B (EGLF / FAB)
Sun 08:19:38 AM 50.9533 0.0004 271° West 236 272 8,000  Level FlightAware ADS-B
Sun 08:19:43 AM 50.9540 -0.0108 285° West 239 275 8,000  Level FlightAware ADS-B (EGLF / FAB)
Sun 08:19:51 AM 50.9553 -0.0179 304° West 244 281 8,000  Level FlightAware ADS-B
Sun 08:19:54 AM 50.9595 -0.0304 308° West 245 282 8,000  Level FlightAware ADS-B (EGLL / LHR)
Sun 08:20:04 AM 50.9684 -0.0434 326° Northwest 250 288 8,000  Level FlightAware ADS-B
Sun 08:20:10 AM 50.9749 -0.0481 340° North 254 292 8,000  Level FlightAware ADS-B (EGLL / LHR)
Sun 08:20:16 AM 50.9814 -0.0506 272° West 234 269 8,000  Level FlightAware ADS-B
Sun 08:20:20 AM 50.9856 -0.0512 360° North 259 298 8,000  Level FlightAware ADS-B
Sun 08:20:24 AM 50.9908 -0.0511 North 261 300 8,000  Level FlightAware ADS-B (EGKK / LGW)
Sun 08:20:33 AM 51.0020 -0.0462 22° Northeast 263 303 8,000  Level FlightAware ADS-B
Sun 08:20:38 AM 51.0064 -0.0423 34° Northeast 257 296 8,000  Level FlightAware ADS-B (EGHI / SOU)
Sun 08:20:44 AM 51.0120 -0.0354 42° Northeast 265 305 8,000 -857 Level FlightAware ADS-B (EGKK / LGW)
Sun 08:20:52 AM 51.0182 -0.0240 56° Northeast 265 305 7,800 -923 Descending FlightAware ADS-B
Sun 08:20:57 AM 51.0216 -0.0150 63° Northeast 259 298 7,800 -857 Level FlightAware ADS-B (LERS / REU)
Sun 08:21:13 AM 51.0292 0.0079 63° Northeast 262 302 7,500 -1,297 Descending FlightAware ADS-B
Sun 08:21:34 AM 51.0411 0.0465 64° Northeast 260 299 7,000 -1,286 Descending FlightAware ADS-B (EGLF / FAB)
Sun 08:21:55 AM 51.0522 0.0826 64° Northeast 255 293 6,600 -1,135 Descending FlightAware ADS-B (EGLL / LHR)
Sun 08:22:11 AM 51.0611 0.1116 64° Northeast 253 291 6,300 -1,125 Descending FlightAware ADS-B (EGLL / LHR)
Sun 08:22:27 AM 51.0689 0.1376 65° Northeast 252 290 6,000 -1,304 Descending FlightAware ADS-B
Sun 08:22:34 AM 51.0726 0.1505 67° East 250 288 5,800 -1,091 Descending FlightAware ADS-B (EGHI / SOU)
Sun 08:22:38 AM 51.0748 0.1571 67° East 250 288 5,800 -462 Level FlightAware ADS-B
Sun 08:22:47 AM 51.0772 0.1661 65° Northeast 251 289 5,700 -632 Descending FlightAware ADS-B (EGLF / FAB)
Sun 08:22:57 AM 51.0834 0.1871 67° East 249 287 5,600 -900 Descending FlightAware ADS-B (LERS / REU)
Sun 08:23:07 AM 51.0886 0.2036 58° Northeast 250 288 5,400 -1,059 Descending FlightAware ADS-B (EGLF / FAB)
Sun 08:23:14 AM 51.0933 0.2128 45° Northeast 247 284 5,300 -600 Descending FlightAware ADS-B
Sun 08:23:17 AM 51.0974 0.2184 37° Northeast 243 280 5,300 -1,000 Level FlightAware ADS-B
Sun 08:23:20 AM 51.0953 0.2160 26° Northeast 239 275 5,200 -667 Descending FlightAware ADS-B
Sun 08:23:26 AM 51.1047 0.2249 20° North 235 270 5,200 -462 Level FlightAware ADS-B (EGLF / FAB)
Sun 08:23:33 AM 51.1110 0.2274 22° Northeast 237 273 5,100 -667 Descending FlightAware ADS-B
Sun 08:23:44 AM 51.1234 0.2269 354° North 212 244 5,000 -571 Descending FlightAware ADS-B (EGKK / LGW)
Sun 08:23:54 AM 51.1328 0.2250 353° North 214 246 4,900 -522 Descending FlightAware ADS-B
Sun 08:24:07 AM 51.1469 0.2222 353° North 210 242 4,800 -545 Descending FlightAware ADS-B
Sun 08:24:16 AM 51.1528 0.2210 353° North 203 234 4,700 -692 Descending FlightAware ADS-B
Sun 08:24:33 AM 51.1709 0.2162 339° North 190 219 4,500 -522 Descending FlightAware ADS-B
Sun 08:24:39 AM 51.1746 0.2130 330° Northwest 187 215 4,500 -400 Level FlightAware ADS-B (EGLF / FAB)
Sun 08:24:48 AM 51.1706 0.2164 302° West 182 209 4,400 -720 Descending FlightAware ADS-B
Sun 08:25:04 AM 51.1866 0.1854 295° West 179 206 4,200 -783 Descending FlightAware ADS-B
Sun 08:25:11 AM 51.1890 0.1775 281° West 176 203 4,100 -720 Descending FlightAware ADS-B (EGLL / LHR)
Sun 08:25:29 AM 51.1923 0.1550 272° West 176 203 3,900 -621 Descending FlightAware ADS-B (EGLF / FAB)
Sun 08:25:40 AM 51.1916 0.1408 265° West 179 206 3,800 -414 Descending FlightAware ADS-B (EGLF / FAB)
Sun 08:25:58 AM 51.1911 0.1304 261° West 175 201 3,700 -444 Descending FlightAware ADS-B
Sun 08:26:07 AM 51.1894 0.1122 259° West 173 199 3,600 -480 Descending FlightAware ADS-B (EGLF / FAB)
Sun 08:26:23 AM 51.1859 0.0854 258° West 174 200 3,500 -563 Descending FlightAware ADS-B (EGLL / LHR)
Sun 08:26:39 AM 51.1832 0.0655 258° West 167 192 3,300 -667 Descending FlightAware ADS-B
Sun 08:26:59 AM 51.1801 0.0429 257° West 160 184 3,100 -811 Descending FlightAware ADS-B (EGLF / FAB)
Sun 08:27:16 AM 51.1775 0.0235 258° West 158 182 2,800 -878 Descending FlightAware ADS-B
Sun 08:27:40 AM 51.1739 -0.0025 258° West 158 182 2,500 -1,111 Descending FlightAware ADS-B (EGKK / LGW)
Sun 08:27:43 AM 51.1756 0.0099 258° West 157 181 2,300 -923 Descending FlightAware ADS-B
Sun 08:28:06 AM 51.1699 -0.0311 258° West 159 183 2,100 -615 Descending FlightAware ADS-B (EGLF / FAB)
Sun 08:28:22 AM 51.1673 -0.0502 258° West 159 183 1,900 -706 Descending FlightAware ADS-B (EGKK / LGW)
Sun 08:28:40 AM 51.1647 -0.0700 258° West 148 170 1,700 -789 Descending FlightAware ADS-B (EGLF / FAB)
Sun 08:29:00 AM 51.1620 -0.0907 261° West 131 151 1,400 -750 Descending FlightAware ADS-B (EGKK / LGW)
Sun 08:29:20 AM 51.1594 -0.1093 261° West 127 146 1,200 -585 Descending FlightAware ADS-B (EGKK / LGW)
Sun 08:29:41 AM 51.1567 -0.1288 261° West 130 150 1,000 -632 Descending FlightAware ADS-B (EGKK / LGW)
Sun 08:29:58 AM 51.1545 -0.1450 261° West 126 145 800 -750 Descending FlightAware ADS-B (EGKK / LGW)
Sun 08:30:21 AM 51.1517 -0.1641 261° West 124 143 500 -783 Descending FlightAware ADS-B (EGKK / LGW)

Login

Don't have an account? Register now (free) for customized features, flight alerts, and more!